sensor_id;sensor_type;location;lat;lon;timestamp;temperature;humidity
13221;DHT22;6675;48.128;11.478;2024-03-02T00:01:24;5.70;78.30
13221;DHT22;6675;48.128;11.478;2024-03-02T00:03:52;6.10;79.80
13221;DHT22;6675;48.128;11.478;2024-03-02T00:06:21;5.80;79.90
13221;DHT22;6675;48.128;11.478;2024-03-02T00:08:47;6.00;79.60
13221;DHT22;6675;48.128;11.478;2024-03-02T00:11:12;5.80;79.90
13221;DHT22;6675;48.128;11.478;2024-03-02T00:13:40;6.00;78.90
13221;DHT22;6675;48.128;11.478;2024-03-02T00:16:06;6.00;79.20
13221;DHT22;6675;48.128;11.478;2024-03-02T00:18:35;6.10;79.60
13221;DHT22;6675;48.128;11.478;2024-03-02T00:21:01;5.30;79.10
13221;DHT22;6675;48.128;11.478;2024-03-02T00:23:30;6.10;78.70
13221;DHT22;6675;48.128;11.478;2024-03-02T00:25:56;6.00;80.60
13221;DHT22;6675;48.128;11.478;2024-03-02T00:28:27;6.10;79.20
13221;DHT22;6675;48.128;11.478;2024-03-02T00:30:59;6.10;79.10
13221;DHT22;6675;48.128;11.478;2024-03-02T00:33:36;5.90;80.00
13221;DHT22;6675;48.128;11.478;2024-03-02T00:36:03;5.30;81.10
13221;DHT22;6675;48.128;11.478;2024-03-02T00:38:33;5.80;83.30
13221;DHT22;6675;48.128;11.478;2024-03-02T00:41:04;5.20;84.70
13221;DHT22;6675;48.128;11.478;2024-03-02T00:46:16;5.90;87.40
13221;DHT22;6675;48.128;11.478;2024-03-02T00:48:48;5.70;88.00
13221;DHT22;6675;48.128;11.478;2024-03-02T00:51:14;5.00;88.90
13221;DHT22;6675;48.128;11.478;2024-03-02T00:53:39;5.70;88.60
13221;DHT22;6675;48.128;11.478;2024-03-02T00:56:10;5.40;88.80
13221;DHT22;6675;48.128;11.478;2024-03-02T00:58:36;5.90;90.30
13221;DHT22;6675;48.128;11.478;2024-03-02T01:01:01;6.10;90.70
13221;DHT22;6675;48.128;11.478;2024-03-02T01:03:27;6.00;90.50
13221;DHT22;6675;48.128;11.478;2024-03-02T01:05:52;6.70;91.40
13221;DHT22;6675;48.128;11.478;2024-03-02T01:08:18;5.70;90.30
13221;DHT22;6675;48.128;11.478;2024-03-02T01:10:43;5.60;90.60
13221;DHT22;6675;48.128;11.478;2024-03-02T01:13:09;6.00;91.10
13221;DHT22;6675;48.128;11.478;2024-03-02T01:15:35;5.50;91.00
13221;DHT22;6675;48.128;11.478;2024-03-02T01:18:01;5.70;91.40
13221;DHT22;6675;48.128;11.478;2024-03-02T01:20:26;5.90;91.50
13221;DHT22;6675;48.128;11.478;2024-03-02T01:22:52;5.90;91.80
13221;DHT22;6675;48.128;11.478;2024-03-02T01:25:18;6.20;91.70
13221;DHT22;6675;48.128;11.478;2024-03-02T01:27:44;6.30;91.90
13221;DHT22;6675;48.128;11.478;2024-03-02T01:30:10;5.60;91.70
13221;DHT22;6675;48.128;11.478;2024-03-02T01:32:38;6.10;92.10
13221;DHT22;6675;48.128;11.478;2024-03-02T01:35:04;5.60;91.00
13221;DHT22;6675;48.128;11.478;2024-03-02T01:37:30;6.10;91.80
13221;DHT22;6675;48.128;11.478;2024-03-02T01:39:55;5.30;92.10
13221;DHT22;6675;48.128;11.478;2024-03-02T01:42:21;6.20;92.00
13221;DHT22;6675;48.128;11.478;2024-03-02T01:44:47;6.20;92.70
13221;DHT22;6675;48.128;11.478;2024-03-02T01:47:13;5.70;92.10
13221;DHT22;6675;48.128;11.478;2024-03-02T01:49:39;6.10;92.60
13221;DHT22;6675;48.128;11.478;2024-03-02T01:52:06;6.30;92.90
13221;DHT22;6675;48.128;11.478;2024-03-02T01:54:32;6.30;92.50
13221;DHT22;6675;48.128;11.478;2024-03-02T01:56:58;6.50;94.10
13221;DHT22;6675;48.128;11.478;2024-03-02T01:59:23;5.70;94.20
13221;DHT22;6675;48.128;11.478;2024-03-02T02:01:49;6.30;94.30
13221;DHT22;6675;48.128;11.478;2024-03-02T02:04:15;5.90;94.00
13221;DHT22;6675;48.128;11.478;2024-03-02T02:09:15;5.60;94.30
13221;DHT22;6675;48.128;11.478;2024-03-02T02:11:40;6.20;93.80
13221;DHT22;6675;48.128;11.478;2024-03-02T02:14:06;6.60;94.40
13221;DHT22;6675;48.128;11.478;2024-03-02T02:16:32;6.10;93.80
13221;DHT22;6675;48.128;11.478;2024-03-02T02:19:00;6.10;94.00
13221;DHT22;6675;48.128;11.478;2024-03-02T02:21:26;6.20;94.00
13221;DHT22;6675;48.128;11.478;2024-03-02T02:23:52;6.10;93.70
13221;DHT22;6675;48.128;11.478;2024-03-02T02:26:18;5.50;93.60
13221;DHT22;6675;48.128;11.478;2024-03-02T02:28:43;5.80;93.70
13221;DHT22;6675;48.128;11.478;2024-03-02T02:31:15;5.90;94.10
13221;DHT22;6675;48.128;11.478;2024-03-02T02:33:42;5.70;93.90
13221;DHT22;6675;48.128;11.478;2024-03-02T02:36:08;5.90;94.30
13221;DHT22;6675;48.128;11.478;2024-03-02T02:38:39;6.20;94.00
13221;DHT22;6675;48.128;11.478;2024-03-02T02:41:05;6.00;94.20
13221;DHT22;6675;48.128;11.478;2024-03-02T02:43:31;6.10;94.00
13221;DHT22;6675;48.128;11.478;2024-03-02T02:45:56;5.90;94.20
13221;DHT22;6675;48.128;11.478;2024-03-02T02:48:22;6.00;93.80
13221;DHT22;6675;48.128;11.478;2024-03-02T02:50:48;6.10;94.00
13221;DHT22;6675;48.128;11.478;2024-03-02T02:53:13;6.00;93.80
13221;DHT22;6675;48.128;11.478;2024-03-02T02:55:42;5.50;93.80
13221;DHT22;6675;48.128;11.478;2024-03-02T02:58:09;5.90;93.70
13221;DHT22;6675;48.128;11.478;2024-03-02T03:00:35;5.60;94.20
13221;DHT22;6675;48.128;11.478;2024-03-02T03:03:02;5.90;93.80
13221;DHT22;6675;48.128;11.478;2024-03-02T03:05:27;5.90;93.90
13221;DHT22;6675;48.128;11.478;2024-03-02T03:07:53;5.90;94.30
13221;DHT22;6675;48.128;11.478;2024-03-02T03:10:18;5.90;93.80
13221;DHT22;6675;48.128;11.478;2024-03-02T03:12:47;5.90;93.80
13221;DHT22;6675;48.128;11.478;2024-03-02T03:15:13;5.40;94.10
13221;DHT22;6675;48.128;11.478;2024-03-02T03:17:38;6.20;94.80
13221;DHT22;6675;48.128;11.478;2024-03-02T03:20:04;5.60;94.10
13221;DHT22;6675;48.128;11.478;2024-03-02T03:22:31;5.90;94.30
13221;DHT22;6675;48.128;11.478;2024-03-02T03:24:57;5.80;94.40
13221;DHT22;6675;48.128;11.478;2024-03-02T03:27:22;5.80;94.30
13221;DHT22;6675;48.128;11.478;2024-03-02T03:29:48;5.90;94.20
13221;DHT22;6675;48.128;11.478;2024-03-02T03:32:14;5.70;94.80
13221;DHT22;6675;48.128;11.478;2024-03-02T03:34:39;4.80;94.70
13221;DHT22;6675;48.128;11.478;2024-03-02T03:37:05;5.90;94.50
13221;DHT22;6675;48.128;11.478;2024-03-02T03:39:31;5.80;94.40
13221;DHT22;6675;48.128;11.478;2024-03-02T03:41:56;5.90;94.50
13221;DHT22;6675;48.128;11.478;2024-03-02T03:44:22;5.60;94.60
13221;DHT22;6675;48.128;11.478;2024-03-02T03:46:48;5.60;95.10
13221;DHT22;6675;48.128;11.478;2024-03-02T03:49:13;6.70;95.40
13221;DHT22;6675;48.128;11.478;2024-03-02T03:51:39;5.70;94.70
13221;DHT22;6675;48.128;11.478;2024-03-02T03:54:04;6.50;95.00
13221;DHT22;6675;48.128;11.478;2024-03-02T03:56:36;5.50;94.50
13221;DHT22;6675;48.128;11.478;2024-03-02T03:59:08;5.80;94.20
13221;DHT22;6675;48.128;11.478;2024-03-02T04:04:00;5.70;94.80
13221;DHT22;6675;48.128;11.478;2024-03-02T04:06:27;4.80;94.00
13221;DHT22;6675;48.128;11.478;2024-03-02T04:08:53;5.90;94.60
13221;DHT22;6675;48.128;11.478;2024-03-02T04:11:18;5.70;94.70
13221;DHT22;6675;48.128;11.478;2024-03-02T04:13:44;5.70;95.00
13221;DHT22;6675;48.128;11.478;2024-03-02T04:16:09;5.70;94.00
13221;DHT22;6675;48.128;11.478;2024-03-02T04:18:35;8.30;94.90
13221;DHT22;6675;48.128;11.478;2024-03-02T04:21:00;5.70;94.50
13221;DHT22;6675;48.128;11.478;2024-03-02T04:23:26;5.80;94.40
13221;DHT22;6675;48.128;11.478;2024-03-02T04:25:52;5.30;94.10
13221;DHT22;6675;48.128;11.478;2024-03-02T04:28:17;5.70;94.40
13221;DHT22;6675;48.128;11.478;2024-03-02T04:30:43;5.70;94.10
13221;DHT22;6675;48.128;11.478;2024-03-02T04:33:08;5.50;94.50
13221;DHT22;6675;48.128;11.478;2024-03-02T04:35:36;6.00;94.60
13221;DHT22;6675;48.128;11.478;2024-03-02T04:38:01;5.50;94.40
13221;DHT22;6675;48.128;11.478;2024-03-02T04:40:33;4.70;94.40
13221;DHT22;6675;48.128;11.478;2024-03-02T04:43:02;5.70;94.40
13221;DHT22;6675;48.128;11.478;2024-03-02T04:45:29;5.60;94.10
13221;DHT22;6675;48.128;11.478;2024-03-02T04:47:54;5.20;94.30
13221;DHT22;6675;48.128;11.478;2024-03-02T04:50:20;5.70;94.30
13221;DHT22;6675;48.128;11.478;2024-03-02T04:52:45;5.70;94.40
13221;DHT22;6675;48.128;11.478;2024-03-02T04:55:11;5.80;94.40
13221;DHT22;6675;48.128;11.478;2024-03-02T04:57:43;5.90;94.50
13221;DHT22;6675;48.128;11.478;2024-03-02T05:00:09;5.60;94.40
13221;DHT22;6675;48.128;11.478;2024-03-02T05:02:41;6.60;95.30
13221;DHT22;6675;48.128;11.478;2024-03-02T05:07:39;6.20;95.00
13221;DHT22;6675;48.128;11.478;2024-03-02T05:10:06;5.90;94.50
13221;DHT22;6675;48.128;11.478;2024-03-02T05:12:34;5.80;95.30
13221;DHT22;6675;48.128;11.478;2024-03-02T05:17:42;5.70;94.50
13221;DHT22;6675;48.128;11.478;2024-03-02T05:25:09;6.00;94.60
13221;DHT22;6675;48.128;11.478;2024-03-02T05:27:37;6.40;95.30
13221;DHT22;6675;48.128;11.478;2024-03-02T05:30:04;5.40;94.60
13221;DHT22;6675;48.128;11.478;2024-03-02T05:32:32;6.50;95.10
13221;DHT22;6675;48.128;11.478;2024-03-02T05:34:58;5.90;94.30
13221;DHT22;6675;48.128;11.478;2024-03-02T05:37:24;5.80;94.50
13221;DHT22;6675;48.128;11.478;2024-03-02T05:39:50;5.40;95.00
13221;DHT22;6675;48.128;11.478;2024-03-02T05:42:16;5.60;94.70
13221;DHT22;6675;48.128;11.478;2024-03-02T05:44:44;5.60;94.80
13221;DHT22;6675;48.128;11.478;2024-03-02T05:47:13;6.40;95.40
13221;DHT22;6675;48.128;11.478;2024-03-02T05:49:39;5.80;95.50
13221;DHT22;6675;48.128;11.478;2024-03-02T05:54:32;5.60;94.60
13221;DHT22;6675;48.128;11.478;2024-03-02T05:56:58;5.50;94.80
13221;DHT22;6675;48.128;11.478;2024-03-02T05:59:42;4.80;95.40
13221;DHT22;6675;48.128;11.478;2024-03-02T06:02:08;5.90;95.00
13221;DHT22;6675;48.128;11.478;2024-03-02T06:04:34;6.60;95.90
13221;DHT22;6675;48.128;11.478;2024-03-02T06:07:00;5.20;95.00
13221;DHT22;6675;48.128;11.478;2024-03-02T06:09:26;5.80;95.20
13221;DHT22;6675;48.128;11.478;2024-03-02T06:11:52;5.90;95.50
13221;DHT22;6675;48.128;11.478;2024-03-02T06:14:18;4.80;95.60
13221;DHT22;6675;48.128;11.478;2024-03-02T06:16:43;5.10;95.90
13221;DHT22;6675;48.128;11.478;2024-03-02T06:21:36;5.80;95.70
13221;DHT22;6675;48.128;11.478;2024-03-02T06:24:02;5.70;95.40
13221;DHT22;6675;48.128;11.478;2024-03-02T06:28:55;5.60;95.70
13221;DHT22;6675;48.128;11.478;2024-03-02T06:31:21;6.00;95.70
13221;DHT22;6675;48.128;11.478;2024-03-02T06:33:47;5.50;96.50
13221;DHT22;6675;48.128;11.478;2024-03-02T06:36:13;5.80;95.70
13221;DHT22;6675;48.128;11.478;2024-03-02T06:38:41;5.90;96.70
13221;DHT22;6675;48.128;11.478;2024-03-02T06:41:06;6.10;96.50
13221;DHT22;6675;48.128;11.478;2024-03-02T06:43:33;5.80;97.00
13221;DHT22;6675;48.128;11.478;2024-03-02T06:45:59;6.80;97.00
13221;DHT22;6675;48.128;11.478;2024-03-02T06:48:25;5.90;96.70
13221;DHT22;6675;48.128;11.478;2024-03-02T06:50:51;5.60;97.40
13221;DHT22;6675;48.128;11.478;2024-03-02T06:53:17;6.10;97.00
13221;DHT22;6675;48.128;11.478;2024-03-02T06:55:46;6.20;97.30
13221;DHT22;6675;48.128;11.478;2024-03-02T06:58:13;6.50;97.00
13221;DHT22;6675;48.128;11.478;2024-03-02T07:00:40;6.30;97.20
13221;DHT22;6675;48.128;11.478;2024-03-02T07:03:06;6.90;97.40
13221;DHT22;6675;48.128;11.478;2024-03-02T07:05:31;6.30;96.90
13221;DHT22;6675;48.128;11.478;2024-03-02T07:07:57;6.30;96.70
13221;DHT22;6675;48.128;11.478;2024-03-02T07:10:22;6.40;96.90
13221;DHT22;6675;48.128;11.478;2024-03-02T07:12:48;6.30;96.60
13221;DHT22;6675;48.128;11.478;2024-03-02T07:15:14;6.20;96.10
13221;DHT22;6675;48.128;11.478;2024-03-02T07:17:58;5.70;95.50
13221;DHT22;6675;48.128;11.478;2024-03-02T07:20:24;6.20;95.10
13221;DHT22;6675;48.128;11.478;2024-03-02T07:22:49;6.20;95.00
13221;DHT22;6675;48.128;11.478;2024-03-02T07:25:15;7.10;95.80
13221;DHT22;6675;48.128;11.478;2024-03-02T07:27:40;6.10;95.60
13221;DHT22;6675;48.128;11.478;2024-03-02T07:30:07;5.50;95.00
13221;DHT22;6675;48.128;11.478;2024-03-02T07:32:32;6.20;95.60
13221;DHT22;6675;48.128;11.478;2024-03-02T07:34:58;6.00;95.50
13221;DHT22;6675;48.128;11.478;2024-03-02T07:37:24;6.10;95.80
13221;DHT22;6675;48.128;11.478;2024-03-02T07:39:50;5.50;95.90
13221;DHT22;6675;48.128;11.478;2024-03-02T07:42:16;6.30;95.90
13221;DHT22;6675;48.128;11.478;2024-03-02T07:44:43;5.80;95.40
13221;DHT22;6675;48.128;11.478;2024-03-02T07:47:09;6.20;95.50
13221;DHT22;6675;48.128;11.478;2024-03-02T07:49:35;6.30;95.10
13221;DHT22;6675;48.128;11.478;2024-03-02T07:52:00;6.40;95.30
13221;DHT22;6675;48.128;11.478;2024-03-02T07:54:26;6.40;94.10
13221;DHT22;6675;48.128;11.478;2024-03-02T07:56:51;6.20;93.80
13221;DHT22;6675;48.128;11.478;2024-03-02T07:59:17;6.20;93.50
13221;DHT22;6675;48.128;11.478;2024-03-02T08:01:43;6.40;93.30
13221;DHT22;6675;48.128;11.478;2024-03-02T08:04:08;7.10;92.50
13221;DHT22;6675;48.128;11.478;2024-03-02T08:06:34;6.00;91.80
13221;DHT22;6675;48.128;11.478;2024-03-02T08:09:00;6.20;92.60
13221;DHT22;6675;48.128;11.478;2024-03-02T08:11:27;6.90;89.40
13221;DHT22;6675;48.128;11.478;2024-03-02T08:13:52;7.00;89.40
13221;DHT22;6675;48.128;11.478;2024-03-02T08:16:21;7.40;86.80
13221;DHT22;6675;48.128;11.478;2024-03-02T08:18:48;6.50;86.00
13221;DHT22;6675;48.128;11.478;2024-03-02T08:21:14;7.80;87.90
13221;DHT22;6675;48.128;11.478;2024-03-02T08:23:40;7.60;87.40
13221;DHT22;6675;48.128;11.478;2024-03-02T08:26:07;7.70;80.30
13221;DHT22;6675;48.128;11.478;2024-03-02T08:28:34;7.70;73.20
13221;DHT22;6675;48.128;11.478;2024-03-02T08:30:59;8.00;66.80
13221;DHT22;6675;48.128;11.478;2024-03-02T08:33:25;8.10;53.00
13221;DHT22;6675;48.128;11.478;2024-03-02T08:35:51;8.20;56.80
13221;DHT22;6675;48.128;11.478;2024-03-02T08:38:16;8.90;42.30
13221;DHT22;6675;48.128;11.478;2024-03-02T08:40:42;8.40;43.90
13221;DHT22;6675;48.128;11.478;2024-03-02T08:43:08;8.90;42.40
13221;DHT22;6675;48.128;11.478;2024-03-02T08:45:33;9.30;48.10
13221;DHT22;6675;48.128;11.478;2024-03-02T08:48:00;10.00;39.30
13221;DHT22;6675;48.128;11.478;2024-03-02T08:50:25;10.20;25.20
13221;DHT22;6675;48.128;11.478;2024-03-02T08:52:51;10.40;18.20
13221;DHT22;6675;48.128;11.478;2024-03-02T08:55:17;10.50;15.20
13221;DHT22;6675;48.128;11.478;2024-03-02T08:57:42;10.80;13.20
13221;DHT22;6675;48.128;11.478;2024-03-02T09:00:08;11.10;13.30
13221;DHT22;6675;48.128;11.478;2024-03-02T09:02:34;12.90;14.70
13221;DHT22;6675;48.128;11.478;2024-03-02T09:05:01;13.20;10.80
13221;DHT22;6675;48.128;11.478;2024-03-02T09:07:26;14.10;5.80
13221;DHT22;6675;48.128;11.478;2024-03-02T09:09:52;14.40;5.00
13221;DHT22;6675;48.128;11.478;2024-03-02T09:12:18;15.50;1.00
13221;DHT22;6675;48.128;11.478;2024-03-02T09:14:44;17.00;1.00
13221;DHT22;6675;48.128;11.478;2024-03-02T09:17:10;17.10;1.00
13221;DHT22;6675;48.128;11.478;2024-03-02T09:19:36;17.00;1.00
13221;DHT22;6675;48.128;11.478;2024-03-02T09:22:02;16.90;1.00
13221;DHT22;6675;48.128;11.478;2024-03-02T09:24:31;15.90;1.00
13221;DHT22;6675;48.128;11.478;2024-03-02T09:26:58;16.10;1.00
13221;DHT22;6675;48.128;11.478;2024-03-02T09:29:24;15.60;1.00
13221;DHT22;6675;48.128;11.478;2024-03-02T09:31:50;16.30;1.00
13221;DHT22;6675;48.128;11.478;2024-03-02T09:34:16;16.10;1.00
13221;DHT22;6675;48.128;11.478;2024-03-02T09:36:42;17.00;1.00
13221;DHT22;6675;48.128;11.478;2024-03-02T09:39:08;17.70;1.00
13221;DHT22;6675;48.128;11.478;2024-03-02T09:41:36;18.10;1.00
13221;DHT22;6675;48.128;11.478;2024-03-02T09:44:02;17.70;1.00
13221;DHT22;6675;48.128;11.478;2024-03-02T09:46:28;17.70;1.00
13221;DHT22;6675;48.128;11.478;2024-03-02T09:48:54;17.50;1.00
13221;DHT22;6675;48.128;11.478;2024-03-02T09:51:19;16.60;1.00
13221;DHT22;6675;48.128;11.478;2024-03-02T09:53:45;16.50;1.00
13221;DHT22;6675;48.128;11.478;2024-03-02T09:56:12;16.30;1.00
13221;DHT22;6675;48.128;11.478;2024-03-02T09:58:38;15.70;1.00
13221;DHT22;6675;48.128;11.478;2024-03-02T10:01:08;15.30;1.00
13221;DHT22;6675;48.128;11.478;2024-03-02T10:03:36;14.60;1.00
13221;DHT22;6675;48.128;11.478;2024-03-02T10:06:22;14.80;1.00
13221;DHT22;6675;48.128;11.478;2024-03-02T10:08:48;14.70;1.00
13221;DHT22;6675;48.128;11.478;2024-03-02T10:11:30;14.60;1.00
13221;DHT22;6675;48.128;11.478;2024-03-02T10:14:13;14.60;1.00
13221;DHT22;6675;48.128;11.478;2024-03-02T10:16:40;14.40;1.00
13221;DHT22;6675;48.128;11.478;2024-03-02T10:19:19;14.40;1.00
13221;DHT22;6675;48.128;11.478;2024-03-02T10:21:46;14.80;1.00
13221;DHT22;6675;48.128;11.478;2024-03-02T10:24:12;15.00;1.00
13221;DHT22;6675;48.128;11.478;2024-03-02T10:26:38;15.30;1.00
13221;DHT22;6675;48.128;11.478;2024-03-02T10:29:03;15.60;1.00
13221;DHT22;6675;48.128;11.478;2024-03-02T10:31:29;16.60;1.00
13221;DHT22;6675;48.128;11.478;2024-03-02T10:33:55;16.30;1.00
13221;DHT22;6675;48.128;11.478;2024-03-02T10:36:21;19.00;1.00
13221;DHT22;6675;48.128;11.478;2024-03-02T10:38:47;18.30;1.00
13221;DHT22;6675;48.128;11.478;2024-03-02T10:41:18;19.80;1.00
13221;DHT22;6675;48.128;11.478;2024-03-02T10:43:45;19.90;1.00
13221;DHT22;6675;48.128;11.478;2024-03-02T10:48:48;19.20;1.00
13221;DHT22;6675;48.128;11.478;2024-03-02T10:51:14;19.40;1.00
13221;DHT22;6675;48.128;11.478;2024-03-02T10:53:40;19.40;1.00
13221;DHT22;6675;48.128;11.478;2024-03-02T10:56:07;20.20;1.00
13221;DHT22;6675;48.128;11.478;2024-03-02T10:58:34;20.30;1.00
13221;DHT22;6675;48.128;11.478;2024-03-02T11:01:02;21.30;1.00
13221;DHT22;6675;48.128;11.478;2024-03-02T11:03:32;22.70;1.00
13221;DHT22;6675;48.128;11.478;2024-03-02T11:05:59;23.20;1.00
13221;DHT22;6675;48.128;11.478;2024-03-02T11:08:26;24.30;1.00
13221;DHT22;6675;48.128;11.478;2024-03-02T11:11:36;24.90;1.00
13221;DHT22;6675;48.128;11.478;2024-03-02T11:13:57;26.40;1.00
13221;DHT22;6675;48.128;11.478;2024-03-02T11:16:35;27.70;1.00
13221;DHT22;6675;48.128;11.478;2024-03-02T11:19:10;28.60;1.00
13221;DHT22;6675;48.128;11.478;2024-03-02T11:21:37;29.70;1.00
13221;DHT22;6675;48.128;11.478;2024-03-02T11:26:47;30.80;1.00
13221;DHT22;6675;48.128;11.478;2024-03-02T11:32:00;29.50;1.00
13221;DHT22;6675;48.128;11.478;2024-03-02T11:34:30;29.20;1.00
13221;DHT22;6675;48.128;11.478;2024-03-02T11:36:57;28.90;1.00
13221;DHT22;6675;48.128;11.478;2024-03-02T11:39:27;28.70;1.00
13221;DHT22;6675;48.128;11.478;2024-03-02T11:41:56;29.70;1.00
13221;DHT22;6675;48.128;11.478;2024-03-02T11:44:26;30.40;1.00
13221;DHT22;6675;48.128;11.478;2024-03-02T11:46:59;30.40;1.00
13221;DHT22;6675;48.128;11.478;2024-03-02T11:49:45;30.80;1.00
13221;DHT22;6675;48.128;11.478;2024-03-02T11:52:12;31.00;1.00
13221;DHT22;6675;48.128;11.478;2024-03-02T11:54:40;31.30;1.00
13221;DHT22;6675;48.128;11.478;2024-03-02T11:57:07;31.50;1.00
13221;DHT22;6675;48.128;11.478;2024-03-02T11:59:33;32.00;1.00
13221;DHT22;6675;48.128;11.478;2024-03-02T12:01:59;32.50;1.00
13221;DHT22;6675;48.128;11.478;2024-03-02T12:04:25;32.70;1.00
13221;DHT22;6675;48.128;11.478;2024-03-02T12:06:55;32.90;1.00
13221;DHT22;6675;48.128;11.478;2024-03-02T12:09:21;31.70;1.00
13221;DHT22;6675;48.128;11.478;2024-03-02T12:11:47;31.20;1.00
13221;DHT22;6675;48.128;11.478;2024-03-02T12:14:13;31.30;1.00
13221;DHT22;6675;48.128;11.478;2024-03-02T12:16:38;31.70;1.00
13221;DHT22;6675;48.128;11.478;2024-03-02T12:19:05;32.20;1.00
13221;DHT22;6675;48.128;11.478;2024-03-02T12:21:31;31.70;1.00
13221;DHT22;6675;48.128;11.478;2024-03-02T12:23:57;31.70;1.00
13221;DHT22;6675;48.128;11.478;2024-03-02T12:26:23;30.90;1.00
13221;DHT22;6675;48.128;11.478;2024-03-02T12:28:49;30.00;1.00
13221;DHT22;6675;48.128;11.478;2024-03-02T12:31:15;31.00;1.00
13221;DHT22;6675;48.128;11.478;2024-03-02T12:33:41;31.10;1.00
13221;DHT22;6675;48.128;11.478;2024-03-02T12:36:09;30.90;1.00
13221;DHT22;6675;48.128;11.478;2024-03-02T12:38:37;30.30;1.00
13221;DHT22;6675;48.128;11.478;2024-03-02T12:41:03;30.20;1.00
13221;DHT22;6675;48.128;11.478;2024-03-02T12:43:31;30.10;1.00
13221;DHT22;6675;48.128;11.478;2024-03-02T12:45:58;30.80;1.00
13221;DHT22;6675;48.128;11.478;2024-03-02T12:48:24;31.20;1.00
13221;DHT22;6675;48.128;11.478;2024-03-02T12:50:49;31.00;1.00
13221;DHT22;6675;48.128;11.478;2024-03-02T12:53:15;31.20;1.00
13221;DHT22;6675;48.128;11.478;2024-03-02T12:55:41;31.10;1.00
13221;DHT22;6675;48.128;11.478;2024-03-02T12:58:08;30.80;1.00
13221;DHT22;6675;48.128;11.478;2024-03-02T13:00:34;30.80;1.00
13221;DHT22;6675;48.128;11.478;2024-03-02T13:03:01;30.90;1.00
13221;DHT22;6675;48.128;11.478;2024-03-02T13:05:32;31.00;1.00
13221;DHT22;6675;48.128;11.478;2024-03-02T13:07:58;30.50;1.00
13221;DHT22;6675;48.128;11.478;2024-03-02T13:10:25;30.10;1.00
13221;DHT22;6675;48.128;11.478;2024-03-02T13:12:51;28.90;1.00
13221;DHT22;6675;48.128;11.478;2024-03-02T13:15:16;29.00;1.00
13221;DHT22;6675;48.128;11.478;2024-03-02T13:17:42;29.00;1.00
13221;DHT22;6675;48.128;11.478;2024-03-02T13:20:07;28.40;1.00
13221;DHT22;6675;48.128;11.478;2024-03-02T13:22:36;27.40;1.00
13221;DHT22;6675;48.128;11.478;2024-03-02T13:25:01;27.00;1.00
13221;DHT22;6675;48.128;11.478;2024-03-02T13:27:30;26.30;1.00
13221;DHT22;6675;48.128;11.478;2024-03-02T13:29:56;26.30;1.00
13221;DHT22;6675;48.128;11.478;2024-03-02T13:32:22;26.00;1.00
13221;DHT22;6675;48.128;11.478;2024-03-02T13:34:49;26.10;1.00
13221;DHT22;6675;48.128;11.478;2024-03-02T13:37:15;26.10;1.00
13221;DHT22;6675;48.128;11.478;2024-03-02T13:39:40;26.00;1.00
13221;DHT22;6675;48.128;11.478;2024-03-02T13:42:10;26.10;1.00
13221;DHT22;6675;48.128;11.478;2024-03-02T13:44:37;26.10;1.00
13221;DHT22;6675;48.128;11.478;2024-03-02T13:47:03;26.10;1.00
13221;DHT22;6675;48.128;11.478;2024-03-02T13:49:30;25.90;1.00
13221;DHT22;6675;48.128;11.478;2024-03-02T13:52:08;25.20;1.00
13221;DHT22;6675;48.128;11.478;2024-03-02T13:54:43;25.00;1.00
13221;DHT22;6675;48.128;11.478;2024-03-02T13:57:11;24.50;1.00
13221;DHT22;6675;48.128;11.478;2024-03-02T13:59:38;23.30;1.00
13221;DHT22;6675;48.128;11.478;2024-03-02T14:02:05;23.30;1.00
13221;DHT22;6675;48.128;11.478;2024-03-02T14:04:32;23.20;1.00
13221;DHT22;6675;48.128;11.478;2024-03-02T14:06:58;21.80;1.00
13221;DHT22;6675;48.128;11.478;2024-03-02T14:09:24;22.30;1.00
13221;DHT22;6675;48.128;11.478;2024-03-02T14:11:50;21.30;1.00
13221;DHT22;6675;48.128;11.478;2024-03-02T14:14:19;20.60;1.00
13221;DHT22;6675;48.128;11.478;2024-03-02T14:16:45;20.40;1.00
13221;DHT22;6675;48.128;11.478;2024-03-02T14:19:11;20.40;1.00
13221;DHT22;6675;48.128;11.478;2024-03-02T14:21:38;20.00;1.00
13221;DHT22;6675;48.128;11.478;2024-03-02T14:24:04;19.90;1.00
13221;DHT22;6675;48.128;11.478;2024-03-02T14:26:30;19.70;1.00
13221;DHT22;6675;48.128;11.478;2024-03-02T14:28:56;19.70;1.00
13221;DHT22;6675;48.128;11.478;2024-03-02T14:31:21;19.70;1.00
13221;DHT22;6675;48.128;11.478;2024-03-02T14:33:47;19.50;1.00
13221;DHT22;6675;48.128;11.478;2024-03-02T14:36:13;19.40;1.00
13221;DHT22;6675;48.128;11.478;2024-03-02T14:38:39;18.00;1.00
13221;DHT22;6675;48.128;11.478;2024-03-02T14:41:05;17.90;1.00
13221;DHT22;6675;48.128;11.478;2024-03-02T14:43:30;17.80;1.00
13221;DHT22;6675;48.128;11.478;2024-03-02T14:45:56;17.80;1.00
13221;DHT22;6675;48.128;11.478;2024-03-02T14:48:22;17.40;1.00
13221;DHT22;6675;48.128;11.478;2024-03-02T14:50:48;17.30;1.00
13221;DHT22;6675;48.128;11.478;2024-03-02T14:53:13;16.90;1.00
13221;DHT22;6675;48.128;11.478;2024-03-02T14:55:39;16.70;1.00
13221;DHT22;6675;48.128;11.478;2024-03-02T14:58:04;16.30;1.00
13221;DHT22;6675;48.128;11.478;2024-03-02T15:00:30;16.30;1.00
13221;DHT22;6675;48.128;11.478;2024-03-02T15:05:22;15.90;1.00
13221;DHT22;6675;48.128;11.478;2024-03-02T15:07:48;16.00;1.00
13221;DHT22;6675;48.128;11.478;2024-03-02T15:10:13;16.10;1.00
13221;DHT22;6675;48.128;11.478;2024-03-02T15:12:39;15.50;1.00
13221;DHT22;6675;48.128;11.478;2024-03-02T15:15:05;16.50;1.00
13221;DHT22;6675;48.128;11.478;2024-03-02T15:17:30;16.50;1.00
13221;DHT22;6675;48.128;11.478;2024-03-02T15:19:56;16.60;1.00
13221;DHT22;6675;48.128;11.478;2024-03-02T15:22:22;17.50;1.00
13221;DHT22;6675;48.128;11.478;2024-03-02T15:24:47;16.30;1.00
13221;DHT22;6675;48.128;11.478;2024-03-02T15:27:13;15.00;1.00
13221;DHT22;6675;48.128;11.478;2024-03-02T15:29:38;15.90;1.00
13221;DHT22;6675;48.128;11.478;2024-03-02T15:32:05;15.50;1.00
13221;DHT22;6675;48.128;11.478;2024-03-02T15:36:58;15.30;1.00
13221;DHT22;6675;48.128;11.478;2024-03-02T15:39:23;16.40;1.00
13221;DHT22;6675;48.128;11.478;2024-03-02T15:41:49;14.70;1.00
13221;DHT22;6675;48.128;11.478;2024-03-02T15:44:14;14.50;1.00
13221;DHT22;6675;48.128;11.478;2024-03-02T15:46:40;14.30;1.00
13221;DHT22;6675;48.128;11.478;2024-03-02T15:49:06;14.40;1.00
13221;DHT22;6675;48.128;11.478;2024-03-02T15:51:33;12.30;1.00
13221;DHT22;6675;48.128;11.478;2024-03-02T15:54:01;13.50;1.00
13221;DHT22;6675;48.128;11.478;2024-03-02T15:56:27;13.50;1.00
13221;DHT22;6675;48.128;11.478;2024-03-02T15:58:53;12.30;1.00
13221;DHT22;6675;48.128;11.478;2024-03-02T16:01:18;14.40;1.00
13221;DHT22;6675;48.128;11.478;2024-03-02T16:03:45;13.40;1.00
13221;DHT22;6675;48.128;11.478;2024-03-02T16:06:11;13.50;1.00
13221;DHT22;6675;48.128;11.478;2024-03-02T16:08:36;12.00;1.00
13221;DHT22;6675;48.128;11.478;2024-03-02T16:11:02;15.10;1.00
13221;DHT22;6675;48.128;11.478;2024-03-02T16:13:28;15.10;1.00
13221;DHT22;6675;48.128;11.478;2024-03-02T16:15:53;12.90;1.00
13221;DHT22;6675;48.128;11.478;2024-03-02T16:18:19;13.40;1.00
13221;DHT22;6675;48.128;11.478;2024-03-02T16:20:45;13.00;1.00